• Join FlightAware (Why Join?)
  • Login
  • US Flag 
02:27PM EDT


 

Airport Tracker/Info


-or-


 

Live Flight TrackerFlight Track Log ✈ CPZ5714 ✈ 24-Jun-2013 ✈ KMSP - KALB

Flight Track Log - Related Links

Times and Time Zones

All times are in EDT time to prevent confusion due to time zone crossing. See the CPZ5714 flight status page for this flight to view local times or setup timezone preferences in your user account.

Time Position Orientation Groundspeed Altitude Reporting Facility
EDT Latitude Longitude Course Direction KTS MPH feet Rate Location/Type
08:48PM 44.8833 -93.1333 70° East 176 203 2,600  Level Minneapolis TRACON
08:49PM 44.8942 -93.1142 51° Northeast 210 242 3,000 1,740 Climbing Minneapolis Center
08:50PM 44.9639 -93.0581 30° Northeast 254 292 5,500 2,460 Climbing Minneapolis Center
08:51PM 45.0206 -92.9778 45° Northeast 289 333 8,200 2,580 Climbing Minneapolis Center
08:52PM 45.0867 -92.4531 70° East  Level FlightAware Approximate
08:52PM 45.0797 -92.8942 45° Northeast 301 346 10,900  Level Minneapolis Center
08:53PM 45.1218 -92.2964 70° East  Level FlightAware Approximate
08:53PM 45.1444 -92.8025 45° Northeast 329 379 12,700  Level Minneapolis Center
08:54PM 45.1604 -92.1420 70° East  Level FlightAware Approximate
08:54PM 45.2150 -92.7033 45° Northeast 356 410 15,200  Level Minneapolis Center
08:55PM 45.2631 -92.5811 61° Northeast 366 421 17,200 1,920 Climbing Minneapolis Center
08:56PM 45.2858 -92.4064 79° East 375 432 19,200 1,740 Climbing Minneapolis Center
08:57PM 45.3092 -92.2469 78° East 406 467 20,800 1,500 Climbing Minneapolis Center
08:58PM 45.3306 -92.0825 79° East 421 484 22,300 1,440 Climbing Minneapolis Center
08:59PM 45.3544 -91.9139 79° East 433 498 23,800 1,200 Climbing Minneapolis Center
09:00PM 45.3739 -91.7753 79° East 441 507 24,900 1,260 Climbing Minneapolis Center
09:01PM 45.4025 -91.5647 79° East 450 518 26,500 1,320 Climbing Minneapolis Center
09:02PM 45.4294 -91.3469 80° East 465 535 27,700 1,020 Climbing Minneapolis Center
09:03PM 45.4547 -91.1547 79° East 472 543 28,700 780 Climbing Minneapolis Center
09:04PM 45.4550 -90.9675 90° East 479 551 29,600 900 Climbing Minneapolis Center
09:05PM 45.3947 -90.7639 113° Southeast 469 540 30,800 1,020 Climbing Minneapolis Center
09:07PM 45.3411 -90.5922 114° Southeast 474 545 31,800 960 Climbing Minneapolis Center
09:08PM 45.2886 -90.4253 114° Southeast 470 541 32,900 600 Climbing Minneapolis Center
09:09PM 45.2350 -90.2572 114° Southeast 470 541 33,100 540 Climbing Minneapolis Center
09:10PM 45.1714 -90.0572 114° Southeast 467 537 34,100 780 Climbing Minneapolis Center
09:11PM 45.1192 -89.8933 114° Southeast 462 532 34,900 360 Climbing Minneapolis Center
09:12PM 45.0514 -89.6825 114° Southeast 460 529 35,000  Climbing Minneapolis Center
09:13PM 44.9978 -89.5192 115° Southeast 458 527 35,000  Level Minneapolis Center
09:14PM 44.9447 -89.3561 115° Southeast 457 526 35,000  Level Minneapolis Center
09:15PM 44.8911 -89.1925 115° Southeast 458 527 35,000  Level Minneapolis Center
09:16PM 44.8361 -89.0286 115° Southeast 461 531 35,000  Level Minneapolis Center
09:17PM 44.7825 -88.8650 115° Southeast 460 529 35,000  Level Minneapolis Center
09:18PM 44.7178 -88.6753 116° Southeast 460 529 35,000  Level Minneapolis Center
09:19PM 44.6625 -88.5106 115° Southeast 463 533 35,000  Level Minneapolis Center
09:20PM 44.6067 -88.3467 116° Southeast 463 533 35,000  Level Minneapolis Center
09:21PM 44.5625 -88.2106 114° Southeast 460 529 35,000  Level Minneapolis Center
09:22PM 44.5525 -87.9942 94° East 476 548 35,000  Level Minneapolis Center
09:23PM 44.5494 -87.8144 91° East 478 550 35,000  Level Minneapolis Center
09:24PM 44.5453 -87.5936 91° East 476 548 35,000  Level Minneapolis Center
09:25PM 44.5422 -87.4086 91° East 476 548 35,000 420 Level Minneapolis Center
09:27PM 44.5334 -87.2110 90° East  Level FlightAware Approximate
09:28PM 44.5286 -87.0081 96° East 469 540 36,400  Level Minneapolis Center
09:31PM 44.4858 -86.5255 97° East  Level FlightAware Approximate
09:31PM 44.4744 -86.4022 97° East 465 535 37,000  Level Minneapolis Center
09:32PM 44.4578 -86.2231 97° East 469 540 37,000  Level Minneapolis Center
09:33PM 44.4414 -86.0450 97° East 468 539 37,000  Level Minneapolis Center
09:34PM 44.4444 -86.0509 96° East  Level Estimated
09:34PM 44.4244 -85.8658 97° East 469 540 37,000  Level Minneapolis Center
09:35PM 44.4047 -85.6511 97° East 470 541 37,000  Level Minneapolis Center
09:36PM 44.3883 -85.4719 97° East 468 539 37,000  Level Minneapolis Center
09:37PM 44.3703 -85.2914 98° East 472 543 37,000  Level Minneapolis Center
09:38PM 44.3564 -85.1478 98° East 470 541 37,000  Level Minneapolis Center
09:39PM 44.3378 -84.9664 98° East 473 544 37,000  Level Minneapolis Center
09:40PM 44.3117 -84.7164 98° East 468 539 37,000  Level Minneapolis Center
09:41PM 44.2936 -84.5383 98° East 467 537 37,000  Level Minneapolis Center
09:42PM 44.2739 -84.3575 99° East 471 542 37,000  Level Minneapolis Center
09:43PM 44.2539 -84.1783 99° East 471 542 37,000  Level Minneapolis Center
09:44PM 44.2344 -83.9981 98° East 472 543 37,000  Level Minneapolis Center
09:45PM 44.2189 -83.8542 99° East 472 543 37,000  Level Minneapolis Center
09:46PM 44.1944 -83.6383 99° East 471 542 37,000  Level Minneapolis Center
09:47PM 44.1703 -83.4214 99° East 474 545 37,000  Level Minneapolis Center
09:49PM 44.1489 -83.2419 99° East 472 543 37,000  Level Minneapolis Center
09:50PM 44.1239 -83.0267 99° East 471 542 37,000  Level Minneapolis Center
09:51PM 44.1028 -82.8486 99° East 469 540 37,000  Level Minneapolis Center
09:52PM 44.0797 -82.6681 100° East 472 543 37,000  Level Minneapolis Center
09:53PM 44.0569 -82.4889 100° East 474 545 37,000  Level Minneapolis Center
09:54PM 44.0167 -82.3000 106° East 470 541 37,000  Level Toronto Center
09:55PM 43.9833 -82.1167 104° East 470 541 37,000  Level Toronto Center
09:56PM 43.9667 -81.9500 98° East 470 541 37,000  Level Toronto Center
09:57PM 43.9500 -81.7667 97° East 470 541 37,000  Level Toronto Center
09:58PM 43.9333 -81.5833 97° East 460 529 37,000  Level Toronto Center
09:59PM 43.9000 -81.4167 105° East 460 529 37,000  Level Toronto Center
10:00PM 43.8833 -81.2333 97° East 470 541 37,000  Level Toronto Center
10:01PM 43.8500 -81.0667 105° East 470 541 37,000 -300 Level Toronto Center
10:02PM 43.8167 -80.8833 104° East 470 541 36,400 -840 Descending Toronto Center
10:03PM 43.8167 -80.7000 90° East 470 541 35,400 -720 Descending Toronto Center
10:04PM 43.7833 -80.5167 104° East 470 541 35,000 -240 Descending Toronto Center
10:05PM 43.7667 -80.3500 98° East 470 541 35,000  Level Toronto Center
10:06PM 43.7333 -80.1833 105° East 470 541 35,000  Level Toronto Center
10:07PM 43.7000 -80.0000 104° East 470 541 35,000  Level Toronto Center
10:08PM 43.6833 -79.8167 97° East 470 541 35,000  Level Toronto Center
10:09PM 43.6500 -79.6333 104° East 480 552 35,000  Level Toronto Center
10:10PM 43.6333 -79.4500 97° East 480 552 35,000  Level Toronto Center
10:11PM 43.6000 -79.2833 105° East 470 541 35,000  Level Toronto Center
10:12PM 43.5833 -79.1000 97° East 470 541 35,000  Level Toronto Center
10:13PM 43.5667 -78.9167 97° East 480 552 35,000  Level Toronto Center
10:14PM 43.5333 -78.7333 104° East 480 552 35,000  Level Toronto Center
10:15PM 43.5167 -78.5500 97° East 480 552 35,000  Level Toronto Center
10:16PM 43.4667 -78.4000 115° Southeast 470 541 35,000 -300 Level Toronto Center
10:17PM 43.4500 -78.2167 97° East 470 541 34,500 -720 Descending Toronto Center
10:18PM 43.4333 -78.0333 97° East 470 541 33,600 -1,020 Descending Toronto Center
10:19PM 43.4000 -77.8500 104° East 470 541 32,500 -1,020 Descending Toronto Center
10:20PM 43.3858 -77.6494 95° East 464 534 31,300 -960 Descending Cleveland Center
10:21PM 43.3583 -77.4736 102° East 464 534 30,300 -1,020 Descending Cleveland Center
10:22PM 43.3328 -77.3008 101° East 464 534 29,300 -1,020 Descending Cleveland Center
10:23PM 43.3069 -77.1311 102° East 464 534 28,300 -540 Descending Cleveland Center
10:25PM 43.2500 -76.8167 104° East 460 529 28,000 -120 Descending Toronto Center
10:26PM 43.2167 -76.6333 104° East 460 529 28,000  Level Toronto Center
10:28PM 43.1808 -76.3100 99° East 455 524 28,000 -120 Level Boston Center
10:29PM 43.1533 -76.1347 102° East 455 524 27,800 -600 Descending Boston Center
10:30PM 43.1233 -75.9650 104° East 455 524 26,800 -1,020 Descending Boston Center
10:31PM 43.0969 -75.8014 102° East 455 524 25,800 -1,020 Descending Boston Center
10:32PM 43.0703 -75.6378 103° East 449 517 24,800 -1,020 Descending Boston Center
10:33PM 43.0414 -75.4742 104° East 439 505 23,800 -1,020 Descending Boston Center
10:34PM 43.0164 -75.3169 102° East 434 499 22,800 -1,020 Descending Boston Center
10:35PM 42.9889 -75.1622 104° East 429 494 21,800 -1,320 Descending Boston Center
10:36PM 42.9631 -75.0164 104° East 420 483 20,400 -2,040 Descending Boston Center
10:37PM 42.9372 -74.8650 103° East 402 463 17,800 -2,460 Descending Boston Center
10:38PM 42.9114 -74.7108 103° East 388 447 15,200 -2,640 Descending Boston Center
10:39PM 42.8869 -74.5739 104° East 373 429 12,600 -2,160 Descending Boston Center
10:40PM 42.8681 -74.4600 103° East 356 410 10,900 -1,740 Descending Boston Center
10:41PM 42.8681 -74.3325 90° East 314 361 9,200 -1,620 Descending Boston Center
10:42PM 42.8781 -74.2308 82° East 302 348 7,700 -1,740 Descending Boston Center
10:43PM 42.8925 -74.1122 81° East 291 335 5,800 -1,800 Descending Boston Center
10:44PM 42.9044 -74.0075 81° East 285 328 4,200 -1,620 Descending Boston Center
10:45PM 42.9161 -73.9086 81° East 267 307 2,600 -1,080 Descending Boston Center
10:46PM 42.8961 -73.8344 110° East 214 246 2,100 -240 Descending Boston Center
10:47PM 42.8592 -73.7969 143° Southeast 189 217 2,200 60 Climbing Boston Center